createdAt,value
2023-09-10T00:00:24.352Z,56.39
2023-09-10T00:02:51.041Z,56.35
2023-09-10T00:05:17.976Z,56.25
2023-09-10T00:07:44.636Z,56.82
2023-09-10T00:10:11.467Z,56.82
2023-09-10T00:12:38.088Z,57.02
2023-09-10T00:15:06.067Z,57.50
2023-09-10T00:17:32.894Z,57.28
2023-09-10T00:20:00.519Z,57.23
2023-09-10T00:22:27.331Z,57.73
2023-09-10T00:24:53.964Z,57.89
2023-09-10T00:27:20.714Z,57.44
2023-09-10T00:29:47.382Z,57.72
2023-09-10T00:32:14.110Z,57.86
2023-09-10T00:34:41.723Z,57.90
2023-09-10T00:37:08.816Z,58.19
2023-09-10T00:39:35.586Z,57.85
2023-09-10T00:42:02.223Z,58.33
2023-09-10T00:44:28.970Z,57.97
2023-09-10T00:46:55.828Z,58.54
2023-09-10T00:49:22.851Z,58.34
2023-09-10T00:51:50.970Z,58.56
2023-09-10T00:54:19.075Z,57.92
2023-09-10T00:56:45.803Z,58.27
2023-09-10T00:59:12.953Z,58.98
2023-09-10T01:01:39.738Z,58.91
2023-09-10T01:04:06.757Z,59.18
2023-09-10T01:06:33.566Z,59.17
2023-09-10T01:09:00.361Z,59.10
2023-09-10T01:11:51.261Z,59.47
2023-09-10T01:14:29.550Z,59.54
2023-09-10T01:17:06.450Z,59.10
2023-09-10T01:25:09.681Z,59.39
2023-09-10T01:27:36.341Z,59.69
2023-09-10T01:30:03.825Z,60.22
2023-09-10T01:32:37.219Z,59.71
2023-09-10T01:35:14.176Z,59.59
2023-09-10T01:37:46.701Z,59.93
2023-09-10T01:40:20.415Z,59.91
2023-09-10T01:42:49.603Z,59.99
2023-09-10T01:45:16.577Z,60.25
2023-09-10T01:47:43.576Z,60.22
2023-09-10T01:50:11.481Z,60.97
2023-09-10T01:52:38.178Z,60.69
2023-09-10T01:55:05.539Z,60.19
2023-09-10T01:57:32.216Z,60.01
2023-09-10T01:59:58.874Z,60.71
2023-09-10T02:02:25.646Z,61.00
2023-09-10T02:04:52.301Z,61.03
2023-09-10T02:07:19.016Z,60.62
2023-09-10T02:09:45.766Z,60.88
2023-09-10T02:12:12.418Z,60.73
2023-09-10T02:14:39.072Z,61.12
2023-09-10T02:17:09.287Z,60.73
2023-09-10T02:19:36.148Z,60.84
2023-09-10T02:22:03.858Z,60.94
2023-09-10T02:24:30.432Z,61.44
2023-09-10T02:26:57.096Z,60.71
2023-09-10T02:29:23.851Z,61.26
2023-09-10T02:31:50.639Z,60.78
2023-09-10T02:34:17.401Z,61.29
2023-09-10T02:36:44.043Z,61.36
2023-09-10T02:39:10.642Z,61.44
2023-09-10T02:41:37.244Z,61.46
2023-09-10T02:44:04.091Z,61.96
2023-09-10T02:46:30.731Z,61.73
2023-09-10T02:48:57.430Z,61.38
2023-09-10T02:51:24.178Z,61.68
2023-09-10T02:53:50.800Z,62.21
2023-09-10T02:56:17.563Z,61.98
2023-09-10T02:58:44.243Z,61.87
2023-09-10T03:01:11.128Z,62.69
2023-09-10T03:03:37.899Z,62.62
2023-09-10T03:06:13.220Z,62.03
2023-09-10T03:08:40.481Z,62.53
2023-09-10T03:11:07.325Z,62.41
2023-09-10T03:13:34.042Z,62.76
2023-09-10T03:16:00.724Z,62.86
2023-09-10T03:18:27.515Z,62.50
2023-09-10T03:20:54.609Z,62.94
2023-09-10T03:23:21.351Z,62.63
2023-09-10T03:25:48.123Z,62.45
2023-09-10T03:28:14.928Z,62.64
2023-09-10T03:30:41.580Z,62.76
2023-09-10T03:33:08.290Z,63.19
2023-09-10T03:35:35.100Z,63.18
2023-09-10T03:38:02.052Z,62.91
2023-09-10T03:40:28.636Z,62.80
2023-09-10T03:42:55.217Z,62.83
2023-09-10T03:45:21.887Z,62.70
2023-09-10T03:47:48.750Z,63.37
2023-09-10T03:50:16.834Z,62.66
2023-09-10T03:52:43.536Z,63.35
2023-09-10T03:55:10.659Z,63.13
2023-09-10T03:57:37.223Z,63.48
2023-09-10T04:00:04.529Z,63.16
2023-09-10T04:02:32.220Z,63.65
2023-09-10T04:04:59.111Z,63.55
2023-09-10T04:07:25.812Z,63.47
2023-09-10T04:09:52.436Z,63.76
2023-09-10T04:12:19.018Z,64.00
2023-09-10T04:14:46.359Z,63.59
2023-09-10T04:17:18.118Z,63.73
2023-09-10T04:19:45.997Z,63.50
2023-09-10T04:22:12.767Z,63.88
2023-09-10T04:24:39.412Z,64.54
2023-09-10T04:27:06.085Z,63.90
2023-09-10T04:29:32.785Z,64.38
2023-09-10T04:31:59.490Z,64.27
2023-09-10T04:34:26.131Z,63.99
2023-09-10T04:36:52.834Z,64.18
2023-09-10T04:39:20.669Z,64.71
2023-09-10T04:41:47.990Z,64.05
2023-09-10T04:44:14.915Z,64.28
2023-09-10T04:46:41.770Z,64.51
2023-09-10T04:49:08.526Z,64.88
2023-09-10T04:51:35.136Z,64.33
2023-09-10T04:54:01.964Z,64.66
2023-09-10T04:56:28.554Z,64.40
2023-09-10T04:58:55.341Z,65.01
2023-09-10T05:01:22.034Z,65.43
2023-09-10T05:03:48.777Z,64.84
2023-09-10T05:06:15.531Z,64.47
2023-09-10T05:08:42.262Z,64.98
2023-09-10T05:11:08.973Z,64.34
2023-09-10T05:13:35.710Z,64.87
2023-09-10T05:16:02.752Z,64.95
2023-09-10T05:18:29.460Z,64.31
2023-09-10T05:20:56.145Z,65.01
2023-09-10T05:23:24.016Z,64.64
2023-09-10T05:25:51.148Z,65.38
2023-09-10T05:28:17.921Z,64.98
2023-09-10T05:30:44.759Z,65.28
2023-09-10T05:33:11.957Z,65.16
2023-09-10T05:35:38.643Z,64.79
2023-09-10T05:38:05.410Z,65.03
2023-09-10T05:40:39.042Z,65.03
2023-09-10T05:43:06.654Z,65.19
2023-09-10T05:45:35.171Z,65.28
2023-09-10T05:48:02.543Z,65.08
2023-09-10T05:50:29.323Z,64.97
2023-09-10T05:52:57.560Z,65.38
2023-09-10T05:55:25.550Z,65.54
2023-09-10T05:57:53.978Z,65.57
2023-09-10T06:00:21.680Z,65.32
2023-09-10T06:02:50.847Z,65.17
2023-09-10T06:05:18.030Z,65.61
2023-09-10T06:07:45.404Z,64.90
2023-09-10T06:10:12.268Z,65.26
2023-09-10T06:12:39.918Z,65.38
2023-09-10T06:15:08.075Z,65.18
2023-09-10T06:17:35.533Z,65.28
2023-09-10T06:20:03.861Z,64.99
2023-09-10T06:22:30.923Z,64.75
2023-09-10T06:24:57.837Z,65.06
2023-09-10T06:27:24.525Z,65.08
2023-09-10T06:29:51.357Z,65.31
2023-09-10T06:32:18.164Z,65.55
2023-09-10T06:34:44.845Z,65.13
2023-09-10T06:37:11.664Z,65.41
2023-09-10T06:39:40.194Z,64.92
2023-09-10T06:42:09.485Z,65.61
2023-09-10T06:44:36.735Z,65.42
2023-09-10T06:47:03.511Z,65.30
2023-09-10T06:49:30.687Z,64.78
2023-09-10T06:51:58.123Z,64.87
2023-09-10T06:54:24.821Z,64.43
2023-09-10T06:56:51.682Z,64.96
2023-09-10T06:59:18.429Z,64.46
2023-09-10T07:01:45.595Z,65.05
2023-09-10T07:04:21.743Z,64.51
2023-09-10T07:06:50.400Z,63.85
2023-09-10T07:09:18.786Z,63.17
2023-09-10T07:11:45.480Z,62.38
2023-09-10T07:14:12.249Z,61.55
2023-09-10T07:16:39.179Z,61.24
2023-09-10T07:19:05.855Z,60.64
2023-09-10T07:21:32.470Z,61.07
2023-09-10T07:23:59.336Z,60.95
2023-09-10T07:26:26.074Z,60.60
2023-09-10T07:28:52.923Z,59.02
2023-09-10T07:31:19.723Z,57.39
2023-09-10T07:33:46.504Z,56.47
2023-09-10T07:36:13.475Z,56.10
2023-09-10T07:38:40.393Z,54.49
2023-09-10T07:41:07.487Z,53.45
2023-09-10T07:43:34.146Z,53.17
2023-09-10T07:46:00.823Z,52.33
2023-09-10T07:48:27.556Z,50.85
2023-09-10T07:50:56.425Z,50.74
2023-09-10T07:53:24.226Z,49.63
2023-09-10T07:55:51.350Z,49.40
2023-09-10T07:58:18.359Z,50.48
2023-09-10T08:00:45.524Z,49.92
2023-09-10T08:03:13.928Z,49.26
2023-09-10T08:05:41.197Z,48.74
2023-09-10T08:08:07.836Z,48.52
2023-09-10T08:10:35.576Z,48.78
2023-09-10T08:13:05.716Z,49.24
2023-09-10T08:15:32.996Z,48.79
2023-09-10T08:18:00.098Z,48.73
2023-09-10T08:20:28.244Z,48.37
2023-09-10T08:22:54.973Z,47.66
2023-09-10T08:25:22.059Z,46.62
2023-09-10T08:27:48.772Z,47.04
2023-09-10T08:30:15.735Z,45.66
2023-09-10T08:32:44.222Z,45.19
2023-09-10T08:35:11.185Z,44.96
2023-09-10T08:37:37.886Z,45.53
2023-09-10T08:40:05.033Z,45.23
2023-09-10T08:42:56.663Z,44.13
2023-09-10T08:45:24.013Z,44.29
2023-09-10T08:47:55.376Z,44.73
2023-09-10T08:50:23.691Z,43.94
2023-09-10T08:52:52.006Z,42.73
2023-09-10T08:55:19.034Z,42.72
2023-09-10T08:57:47.248Z,42.42
2023-09-10T09:00:14.203Z,40.80
2023-09-10T09:02:42.820Z,40.71
2023-09-10T09:05:10.473Z,41.02
2023-09-10T09:10:29.987Z,41.53
2023-09-10T09:13:00.090Z,41.03
2023-09-10T09:15:27.777Z,41.54
2023-09-10T09:17:57.511Z,41.60
2023-09-10T09:20:25.850Z,42.28
2023-09-10T09:22:59.769Z,42.60
2023-09-10T09:25:27.798Z,43.61
2023-09-10T09:27:57.302Z,43.68
2023-09-10T09:30:24.046Z,44.15
2023-09-10T09:32:50.940Z,44.88
2023-09-10T09:35:17.716Z,45.23
2023-09-10T09:37:44.382Z,45.69
2023-09-10T09:40:11.405Z,45.70
2023-09-10T09:42:38.559Z,46.30
2023-09-10T09:45:06.194Z,46.25
2023-09-10T09:47:33.596Z,46.68
2023-09-10T09:50:00.514Z,46.99
2023-09-10T09:52:27.271Z,47.22
2023-09-10T09:54:53.818Z,47.54
2023-09-10T09:57:20.516Z,47.62
2023-09-10T09:59:49.522Z,47.64
2023-09-10T10:02:17.172Z,48.03
2023-09-10T10:04:45.150Z,47.95
2023-09-10T10:07:23.432Z,48.10
2023-09-10T10:09:53.159Z,47.90
2023-09-10T10:12:20.892Z,48.00
2023-09-10T10:14:48.769Z,47.10
2023-09-10T10:17:17.908Z,45.64
2023-09-10T10:19:45.020Z,45.25
2023-09-10T10:22:14.198Z,44.99
2023-09-10T10:24:41.108Z,43.53
2023-09-10T10:27:09.077Z,43.68
2023-09-10T10:29:36.679Z,43.30
2023-09-10T10:32:14.356Z,41.98
2023-09-10T10:34:50.424Z,41.28
2023-09-10T10:37:27.180Z,41.79
2023-09-10T10:42:39.107Z,40.92
2023-09-10T10:45:08.199Z,41.52
2023-09-10T10:47:40.066Z,42.49
2023-09-10T10:50:10.752Z,42.64
2023-09-10T10:52:45.856Z,42.79
2023-09-10T10:55:13.495Z,42.45
2023-09-10T10:57:40.519Z,42.20
2023-09-10T11:00:10.922Z,42.47
2023-09-10T11:02:37.806Z,41.94
2023-09-10T11:05:08.842Z,42.13
2023-09-10T11:07:36.928Z,41.69
2023-09-10T11:18:43.616Z,41.51
2023-09-10T11:21:13.986Z,41.58
2023-09-10T11:24:02.450Z,41.24
2023-09-10T11:26:30.529Z,42.42
2023-09-10T11:29:01.139Z,41.63
2023-09-10T11:37:08.473Z,41.50
2023-09-10T11:39:36.743Z,41.84
2023-09-10T11:42:05.776Z,42.08
2023-09-10T11:44:32.556Z,42.46
2023-09-10T11:46:59.364Z,42.15
2023-09-10T11:49:26.518Z,42.83
2023-09-10T11:51:56.303Z,42.98
2023-09-10T11:54:23.724Z,42.73
2023-09-10T11:56:53.373Z,42.61
2023-09-10T11:59:24.715Z,42.80
2023-09-10T12:01:55.500Z,42.93
2023-09-10T12:04:31.620Z,42.52
2023-09-10T12:06:59.072Z,42.54
2023-09-10T12:09:30.761Z,42.97
2023-09-10T12:12:00.444Z,42.18
2023-09-10T12:14:27.889Z,42.19
2023-09-10T12:16:54.975Z,42.42
2023-09-10T12:19:22.019Z,41.94
2023-09-10T12:21:49.032Z,42.47
2023-09-10T12:24:15.686Z,42.97
2023-09-10T12:26:44.064Z,41.31
2023-09-10T12:29:13.924Z,40.93
2023-09-10T12:31:42.586Z,41.24
2023-09-10T12:34:11.075Z,40.13
2023-09-10T12:36:38.570Z,40.76
2023-09-10T12:39:17.568Z,40.24
2023-09-10T12:41:45.538Z,40.78
2023-09-10T12:44:12.320Z,39.79
2023-09-10T12:46:41.103Z,40.28
2023-09-10T12:49:08.017Z,39.78
2023-09-10T12:51:34.699Z,40.06
2023-09-10T12:54:01.427Z,39.65
2023-09-10T12:56:29.852Z,40.50
2023-09-10T12:58:57.204Z,40.76
2023-09-10T13:01:26.885Z,40.64
2023-09-10T13:03:53.718Z,40.18
2023-09-10T13:06:20.485Z,39.96
2023-09-10T13:08:47.182Z,40.22
2023-09-10T13:11:13.880Z,39.89
2023-09-10T13:13:40.792Z,40.21
2023-09-10T13:16:07.721Z,40.67
2023-09-10T13:18:34.558Z,41.11
2023-09-10T13:21:01.194Z,41.53
2023-09-10T13:23:27.982Z,43.19
2023-09-10T13:25:54.704Z,44.62
2023-09-10T13:28:21.418Z,45.96
2023-09-10T13:30:48.747Z,46.96
2023-09-10T13:33:15.555Z,47.96
2023-09-10T13:35:42.277Z,48.41
2023-09-10T13:38:08.997Z,49.28
2023-09-10T13:40:37.611Z,50.36
2023-09-10T13:43:04.538Z,50.56
2023-09-10T13:45:31.258Z,51.65
2023-09-10T13:47:57.979Z,51.70
2023-09-10T13:50:24.773Z,52.38
2023-09-10T13:52:51.899Z,52.93
2023-09-10T13:55:18.618Z,53.55
2023-09-10T13:57:45.206Z,53.42
2023-09-10T14:00:12.393Z,54.23
2023-09-10T14:02:39.277Z,54.43
2023-09-10T14:05:08.461Z,54.89
2023-09-10T14:07:35.665Z,54.96
2023-09-10T14:10:02.498Z,54.70
2023-09-10T14:12:29.144Z,54.36
2023-09-10T14:14:55.758Z,54.10
2023-09-10T14:17:22.447Z,53.83
2023-09-10T14:19:49.100Z,54.32
2023-09-10T14:22:15.660Z,53.54
2023-09-10T14:24:42.651Z,54.07
2023-09-10T14:27:09.362Z,53.65
2023-09-10T14:29:36.110Z,53.68
2023-09-10T14:32:03.055Z,53.58
2023-09-10T14:34:29.710Z,54.08
2023-09-10T14:36:56.324Z,53.85
2023-09-10T14:39:22.920Z,54.53
2023-09-10T14:41:49.674Z,54.78
2023-09-10T14:44:16.364Z,54.97
2023-09-10T14:46:43.116Z,55.28
2023-09-10T14:49:09.829Z,54.81
2023-09-10T14:51:36.441Z,55.33
2023-09-10T14:54:03.320Z,55.26
2023-09-10T14:56:30.072Z,56.43
2023-09-10T14:58:56.815Z,56.42
2023-09-10T15:01:23.494Z,55.93
2023-09-10T15:03:50.365Z,56.20
2023-09-10T15:06:17.202Z,56.07
2023-09-10T15:08:43.971Z,55.48
2023-09-10T15:11:10.779Z,55.89
2023-09-10T15:13:37.644Z,55.53
2023-09-10T15:16:04.665Z,55.52
2023-09-10T15:18:31.368Z,54.58
2023-09-10T15:20:58.040Z,55.53
2023-09-10T15:23:24.725Z,55.35
2023-09-10T15:25:51.597Z,55.08
2023-09-10T15:28:18.258Z,54.31
2023-09-10T15:30:44.903Z,54.24
2023-09-10T15:33:11.751Z,54.90
2023-09-10T15:35:38.579Z,54.38
2023-09-10T15:38:05.313Z,55.20
2023-09-10T15:40:32.119Z,55.13
2023-09-10T15:42:58.850Z,55.49
2023-09-10T15:45:25.646Z,56.20
2023-09-10T15:47:53.347Z,56.27
2023-09-10T15:50:20.030Z,56.42
2023-09-10T15:52:46.802Z,55.87
2023-09-10T15:55:13.468Z,56.20
2023-09-10T15:57:40.086Z,55.99
2023-09-10T16:00:08.738Z,55.72
2023-09-10T16:02:39.887Z,55.41
2023-09-10T16:05:08.158Z,55.02
2023-09-10T16:07:35.367Z,55.60
2023-09-10T16:10:02.255Z,54.54
2023-09-10T16:12:30.655Z,54.77
2023-09-10T16:14:58.417Z,54.79
2023-09-10T16:17:25.228Z,54.38
2023-09-10T16:19:52.330Z,54.00
2023-09-10T16:22:22.692Z,53.52
2023-09-10T16:24:49.432Z,53.19
2023-09-10T16:27:16.240Z,52.99
2023-09-10T16:29:43.163Z,53.35
2023-09-10T16:32:09.971Z,53.22
2023-09-10T16:34:36.635Z,52.86
2023-09-10T16:37:03.344Z,53.66
2023-09-10T16:39:30.000Z,52.64
2023-09-10T16:41:57.325Z,53.46
2023-09-10T16:44:29.021Z,52.96
2023-09-10T16:46:57.367Z,53.37
2023-09-10T16:49:25.355Z,54.07
2023-09-10T16:51:52.250Z,54.28
2023-09-10T16:54:19.067Z,54.30
2023-09-10T16:56:45.758Z,53.83
2023-09-10T16:59:12.843Z,54.06
2023-09-10T17:01:39.576Z,53.89
2023-09-10T17:04:07.711Z,54.86
2023-09-10T17:06:35.510Z,54.38
2023-09-10T17:09:03.370Z,55.19
2023-09-10T17:11:30.079Z,55.61
2023-09-10T17:13:57.452Z,55.96
2023-09-10T17:16:24.234Z,55.37
2023-09-10T17:18:50.893Z,55.40
2023-09-10T17:21:17.489Z,55.92
2023-09-10T17:23:47.687Z,55.65
2023-09-10T17:26:19.320Z,56.46
2023-09-10T17:28:47.176Z,56.57
2023-09-10T17:31:16.092Z,56.65
2023-09-10T17:33:43.796Z,56.29
2023-09-10T17:36:10.428Z,56.69
2023-09-10T17:38:39.050Z,56.54
2023-09-10T17:41:06.306Z,56.06
2023-09-10T17:43:33.046Z,56.08
2023-09-10T17:45:59.819Z,56.01
2023-09-10T17:48:26.537Z,56.46
2023-09-10T17:50:53.397Z,56.06
2023-09-10T17:53:20.301Z,55.88
2023-09-10T17:55:47.063Z,56.46
2023-09-10T17:58:14.082Z,55.57
2023-09-10T18:00:40.901Z,55.72
2023-09-10T18:03:07.859Z,55.67
2023-09-10T18:05:34.741Z,55.73
2023-09-10T18:08:01.877Z,55.38
2023-09-10T18:10:28.818Z,55.24
2023-09-10T18:12:56.741Z,54.88
2023-09-10T18:15:23.479Z,54.96
2023-09-10T18:17:50.276Z,54.75
2023-09-10T18:20:17.121Z,54.76
2023-09-10T18:22:43.890Z,54.73
2023-09-10T18:25:10.668Z,54.35
2023-09-10T18:27:39.517Z,54.82
2023-09-10T18:30:08.148Z,54.54
2023-09-10T18:32:34.801Z,54.72
2023-09-10T18:35:02.112Z,55.00
2023-09-10T18:37:28.900Z,54.97
2023-09-10T18:39:55.732Z,55.13
2023-09-10T18:42:22.382Z,55.71
2023-09-10T18:44:49.147Z,55.68
2023-09-10T18:47:15.945Z,56.06
2023-09-10T18:49:42.706Z,55.92
2023-09-10T18:52:12.637Z,55.85
2023-09-10T18:54:40.201Z,56.65
2023-09-10T18:57:08.001Z,56.67
2023-09-10T18:59:35.406Z,56.79
2023-09-10T19:02:02.486Z,57.10
2023-09-10T19:04:29.403Z,57.19
2023-09-10T19:06:56.102Z,57.27
2023-09-10T19:09:22.721Z,57.61
2023-09-10T19:11:49.446Z,57.79
2023-09-10T19:14:16.620Z,57.91
2023-09-10T19:16:44.558Z,58.40
2023-09-10T19:19:11.269Z,58.87
2023-09-10T19:21:38.921Z,58.84
2023-09-10T19:24:05.756Z,58.86
2023-09-10T19:26:32.618Z,59.22
2023-09-10T19:28:59.384Z,59.66
2023-09-10T19:31:33.627Z,59.32
2023-09-10T19:34:03.219Z,59.42
2023-09-10T19:36:34.367Z,59.98
2023-09-10T19:39:08.725Z,59.50
2023-09-10T19:41:36.161Z,60.18
2023-09-10T19:44:03.865Z,60.04
2023-09-10T19:46:31.237Z,60.00
2023-09-10T19:48:58.035Z,59.86
2023-09-10T19:51:25.168Z,60.07
2023-09-10T19:53:53.753Z,60.95
2023-09-10T19:56:23.325Z,61.04
2023-09-10T19:59:08.522Z,60.68
2023-09-10T20:01:37.720Z,61.19
2023-09-10T20:04:04.694Z,60.82
2023-09-10T20:06:32.140Z,61.22
2023-09-10T20:08:58.972Z,61.38
2023-09-10T20:11:25.686Z,60.85
2023-09-10T20:13:52.360Z,60.91
2023-09-10T20:16:19.103Z,60.99
2023-09-10T20:18:46.290Z,61.31
2023-09-10T20:21:13.047Z,61.41
2023-09-10T20:23:41.870Z,61.41
2023-09-10T20:26:09.897Z,62.05
2023-09-10T20:28:37.376Z,62.06
2023-09-10T20:31:05.611Z,62.00
2023-09-10T20:33:33.523Z,62.12
2023-09-10T20:36:08.428Z,62.47
2023-09-10T20:38:35.403Z,61.86
2023-09-10T20:41:12.036Z,62.04
2023-09-10T20:43:40.448Z,62.16
2023-09-10T20:46:07.633Z,62.50
2023-09-10T20:48:34.536Z,62.33
2023-09-10T20:51:06.815Z,62.37
2023-09-10T20:53:34.310Z,62.51
2023-09-10T20:56:01.612Z,62.19
2023-09-10T20:58:28.435Z,62.67
2023-09-10T21:00:55.285Z,62.68
2023-09-10T21:03:28.935Z,62.20
2023-09-10T21:05:58.107Z,62.48
2023-09-10T21:08:25.349Z,61.96
2023-09-10T21:10:52.179Z,62.83
2023-09-10T21:13:18.849Z,62.39
2023-09-10T21:15:45.530Z,62.10
2023-09-10T21:18:12.273Z,62.59
2023-09-10T21:20:39.066Z,62.28
2023-09-10T21:23:05.795Z,63.02
2023-09-10T21:25:32.517Z,62.90
2023-09-10T21:27:59.095Z,62.68
2023-09-10T21:30:31.028Z,62.62
2023-09-10T21:32:58.018Z,63.21
2023-09-10T21:35:24.734Z,63.31
2023-09-10T21:37:51.451Z,62.60
2023-09-10T21:40:19.422Z,63.21
2023-09-10T21:42:46.924Z,63.22
2023-09-10T21:45:13.562Z,63.33
2023-09-10T21:47:41.622Z,62.66
2023-09-10T21:50:08.927Z,63.21
2023-09-10T21:52:35.876Z,62.94
2023-09-10T21:55:02.776Z,63.71
2023-09-10T21:57:29.499Z,63.38
2023-09-10T21:59:56.111Z,64.05
2023-09-10T22:02:22.829Z,63.54
2023-09-10T22:04:49.602Z,63.31
2023-09-10T22:07:19.764Z,63.99
2023-09-10T22:09:46.943Z,63.76
2023-09-10T22:12:14.833Z,64.06
2023-09-10T22:14:41.621Z,64.12
2023-09-10T22:17:08.479Z,64.84
2023-09-10T22:19:35.180Z,63.95
2023-09-10T22:22:01.793Z,64.42
2023-09-10T22:24:28.510Z,64.89
2023-09-10T22:26:55.141Z,65.16
2023-09-10T22:29:23.038Z,64.88
2023-09-10T22:31:49.888Z,65.22
2023-09-10T22:34:16.586Z,65.59
2023-09-10T22:36:43.335Z,65.39
2023-09-10T22:39:09.932Z,65.05
2023-09-10T22:41:36.710Z,65.33
2023-09-10T22:44:03.921Z,65.64
2023-09-10T22:46:30.885Z,65.78
2023-09-10T22:48:57.813Z,65.87
2023-09-10T22:51:24.496Z,66.01
2023-09-10T22:53:52.399Z,65.58
2023-09-10T22:56:21.795Z,65.88
2023-09-10T22:58:49.248Z,65.71
2023-09-10T23:01:17.896Z,65.82
2023-09-10T23:03:45.155Z,66.09
2023-09-10T23:06:12.227Z,66.24
2023-09-10T23:08:39.258Z,66.24
2023-09-10T23:11:07.061Z,65.77
2023-09-10T23:13:35.712Z,65.94
2023-09-10T23:16:03.371Z,66.33
2023-09-10T23:18:30.226Z,66.15
2023-09-10T23:20:56.853Z,66.11
2023-09-10T23:23:23.724Z,65.96
2023-09-10T23:25:50.463Z,66.24
2023-09-10T23:28:17.214Z,66.19
2023-09-10T23:30:43.843Z,66.55
2023-09-10T23:33:10.621Z,66.77
2023-09-10T23:35:38.680Z,66.83
2023-09-10T23:38:08.277Z,66.54
2023-09-10T23:40:37.375Z,67.29
2023-09-10T23:43:03.985Z,67.38
2023-09-10T23:45:30.572Z,66.56
2023-09-10T23:47:57.510Z,67.01
2023-09-10T23:50:24.252Z,66.76
2023-09-10T23:52:50.916Z,67.17
2023-09-10T23:55:17.799Z,67.37
2023-09-10T23:57:44.537Z,67.23
